createdAt,value
2022-08-28T00:02:19.490Z,10.10
2022-08-28T00:05:11.590Z,9.20
2022-08-28T00:08:00.289Z,8.40
2022-08-28T00:10:48.409Z,8.10
2022-08-28T00:13:38.444Z,8.40
2022-08-28T00:16:30.621Z,8.40
2022-08-28T00:19:20.183Z,7.60
2022-08-28T00:22:10.181Z,7.60
2022-08-28T00:25:02.363Z,7.20
2022-08-28T00:28:08.597Z,8.10
2022-08-28T00:30:59.586Z,8.20
2022-08-28T00:33:55.854Z,9.00
2022-08-28T00:36:43.631Z,9.00
2022-08-28T00:39:31.291Z,8.40
2022-08-28T00:42:27.382Z,8.70
2022-08-28T00:45:20.004Z,7.20
2022-08-28T00:48:07.421Z,7.80
2022-08-28T00:51:14.378Z,7.80
2022-08-28T00:54:07.504Z,8.00
2022-08-28T00:56:57.487Z,8.30
2022-08-28T00:59:45.422Z,9.30
2022-08-28T01:02:36.443Z,21.80
2022-08-28T01:05:25.093Z,8.70
2022-08-28T01:08:12.997Z,7.90
2022-08-28T01:11:09.317Z,11.40
2022-08-28T01:14:01.825Z,9.70
2022-08-28T01:16:56.328Z,8.30
2022-08-28T01:20:01.921Z,7.80
2022-08-28T01:23:17.374Z,7.70
2022-08-28T01:26:11.968Z,8.50
2022-08-28T01:29:03.497Z,8.60
2022-08-28T01:31:55.830Z,10.30
2022-08-28T01:34:48.939Z,9.10
2022-08-28T01:37:42.779Z,9.30
2022-08-28T01:40:41.481Z,10.00
2022-08-28T01:43:31.969Z,8.50
2022-08-28T01:46:33.067Z,9.10
2022-08-28T01:49:25.207Z,8.40
2022-08-28T01:52:15.124Z,9.40
2022-08-28T01:55:06.455Z,10.30
2022-08-28T01:57:58.952Z,9.50
2022-08-28T02:00:46.006Z,9.00
2022-08-28T02:03:33.529Z,7.60
2022-08-28T02:06:21.462Z,8.30
2022-08-28T02:09:13.496Z,9.30
2022-08-28T02:12:02.306Z,8.40
2022-08-28T02:14:52.701Z,10.20
2022-08-28T02:17:44.250Z,8.80
2022-08-28T02:20:33.530Z,10.40
2022-08-28T02:23:23.901Z,10.50
2022-08-28T02:26:12.916Z,9.10
2022-08-28T02:29:00.039Z,11.50
2022-08-28T02:31:47.035Z,9.20
2022-08-28T02:34:35.172Z,8.30
2022-08-28T02:37:24.589Z,9.60
2022-08-28T02:40:14.572Z,9.80
2022-08-28T02:43:02.147Z,9.70
2022-08-28T02:45:49.867Z,9.40
2022-08-28T02:48:39.231Z,13.90
2022-08-28T02:51:26.685Z,12.00
2022-08-28T02:54:14.168Z,10.70
2022-08-28T02:57:10.138Z,9.20
2022-08-28T02:59:56.854Z,9.20
2022-08-28T03:02:45.838Z,8.60
2022-08-28T03:05:32.926Z,9.10
2022-08-28T03:08:20.188Z,9.60
2022-08-28T03:11:14.145Z,11.60
2022-08-28T03:14:03.513Z,9.20
2022-08-28T03:16:50.761Z,9.60
2022-08-28T03:19:38.502Z,9.70
2022-08-28T03:22:43.804Z,8.90
2022-08-28T03:25:31.218Z,9.80
2022-08-28T03:28:19.937Z,9.30
2022-08-28T03:31:08.603Z,9.50
2022-08-28T03:34:00.583Z,8.70
2022-08-28T03:36:47.545Z,9.10
2022-08-28T03:39:34.827Z,11.60
2022-08-28T03:42:31.318Z,8.10
2022-08-28T03:45:25.703Z,9.30
2022-08-28T03:48:13.931Z,8.90
2022-08-28T03:51:05.867Z,9.60
2022-08-28T03:53:54.429Z,8.20
2022-08-28T03:56:41.926Z,10.00
2022-08-28T03:59:33.482Z,9.40
2022-08-28T04:05:09.754Z,10.60
2022-08-28T04:07:56.348Z,12.80
2022-08-28T04:10:45.109Z,11.00
2022-08-28T04:13:32.441Z,9.20
2022-08-28T04:16:19.945Z,9.20
2022-08-28T04:19:07.332Z,9.80
2022-08-28T04:21:59.525Z,8.90
2022-08-28T04:24:46.789Z,10.20
2022-08-28T04:27:35.056Z,13.90
2022-08-28T04:30:29.213Z,10.50
2022-08-28T04:33:16.446Z,9.60
2022-08-28T04:36:12.132Z,10.00
2022-08-28T04:38:59.889Z,9.30
2022-08-28T04:41:47.025Z,10.20
2022-08-28T04:44:34.746Z,8.80
2022-08-28T04:47:22.992Z,9.80
2022-08-28T04:50:11.878Z,10.50
2022-08-28T04:52:59.427Z,12.30
2022-08-28T04:55:55.367Z,11.30
2022-08-28T04:58:44.819Z,10.10
2022-08-28T05:01:32.110Z,10.40
2022-08-28T05:04:25.972Z,10.80
2022-08-28T05:07:15.713Z,9.90
2022-08-28T05:10:03.918Z,10.00
2022-08-28T05:12:52.162Z,10.10
2022-08-28T05:15:47.370Z,17.00
2022-08-28T05:18:35.892Z,8.60
2022-08-28T05:21:23.471Z,10.80
2022-08-28T05:24:11.967Z,10.20
2022-08-28T05:26:59.225Z,9.80
2022-08-28T05:29:47.266Z,13.90
2022-08-28T05:32:34.483Z,9.80
2022-08-28T05:35:22.116Z,11.00
2022-08-28T05:38:11.022Z,12.50
2022-08-28T05:41:03.582Z,9.90
2022-08-28T05:43:51.680Z,11.20
2022-08-28T05:46:43.359Z,9.90
2022-08-28T05:52:17.536Z,10.40
2022-08-28T05:55:05.458Z,12.90
2022-08-28T05:57:53.695Z,9.30
2022-08-28T06:00:40.567Z,14.90
2022-08-28T06:03:27.480Z,9.50
2022-08-28T06:06:14.416Z,11.00
2022-08-28T06:09:05.320Z,10.70
2022-08-28T06:11:54.172Z,10.70
2022-08-28T06:14:41.897Z,10.00
2022-08-28T06:17:28.975Z,11.80
2022-08-28T06:20:21.471Z,11.30
2022-08-28T06:23:10.303Z,11.60
2022-08-28T06:26:03.469Z,12.30
2022-08-28T06:28:53.785Z,15.50
2022-08-28T06:31:40.585Z,14.50
2022-08-28T06:34:28.895Z,12.60
2022-08-28T06:37:16.098Z,14.10
2022-08-28T06:40:03.746Z,11.60
2022-08-28T06:42:50.865Z,13.10
2022-08-28T06:45:42.959Z,13.30
2022-08-28T06:48:31.700Z,13.00
2022-08-28T06:51:19.948Z,13.90
2022-08-28T06:54:10.537Z,13.90
2022-08-28T06:56:58.271Z,12.70
2022-08-28T06:59:45.697Z,14.40
2022-08-28T07:02:32.968Z,13.80
2022-08-28T07:05:20.636Z,14.70
2022-08-28T07:08:08.184Z,14.40
2022-08-28T07:10:59.427Z,15.30
2022-08-28T07:13:46.952Z,14.50
2022-08-28T07:16:42.256Z,14.50
2022-08-28T07:19:34.105Z,14.30
2022-08-28T07:22:22.071Z,14.20
2022-08-28T07:25:09.737Z,15.70
2022-08-28T07:28:02.599Z,12.30
2022-08-28T07:31:05.154Z,15.00
2022-08-28T07:33:57.250Z,14.30
2022-08-28T07:36:44.932Z,13.60
2022-08-28T07:39:31.850Z,13.90
2022-08-28T07:42:37.451Z,15.60
2022-08-28T07:45:26.342Z,19.50
2022-08-28T07:48:14.497Z,19.90
2022-08-28T07:51:05.657Z,20.50
2022-08-28T07:53:53.673Z,17.80
2022-08-28T07:56:40.920Z,26.70
2022-08-28T07:59:34.270Z,20.30
2022-08-28T08:02:26.892Z,14.80
2022-08-28T08:05:14.594Z,14.40
2022-08-28T08:08:01.723Z,21.30
2022-08-28T08:11:10.669Z,16.40
2022-08-28T08:14:05.546Z,17.40
2022-08-28T08:16:53.747Z,15.30
2022-08-28T08:19:40.915Z,18.60
2022-08-28T08:22:28.004Z,18.20
2022-08-28T08:25:15.549Z,11.30
2022-08-28T08:28:04.088Z,15.90
2022-08-28T08:31:06.058Z,12.80
2022-08-28T08:36:42.205Z,16.10
2022-08-28T08:39:29.480Z,15.10
2022-08-28T08:42:29.289Z,14.20
2022-08-28T08:45:21.584Z,14.30
2022-08-28T08:48:22.577Z,13.30
2022-08-28T08:51:27.058Z,13.70
2022-08-28T08:54:20.682Z,15.50
2022-08-28T08:57:10.805Z,6.20
2022-08-28T08:59:58.716Z,11.70
2022-08-28T09:02:56.165Z,13.50
2022-08-28T09:05:50.153Z,13.30
2022-08-28T09:08:42.583Z,11.60
2022-08-28T09:11:41.754Z,10.20
2022-08-28T09:15:05.230Z,8.30
2022-08-28T09:18:16.216Z,11.70
2022-08-28T09:21:03.415Z,11.60
2022-08-28T09:23:53.400Z,16.40
2022-08-28T09:26:40.573Z,19.60
2022-08-28T09:29:37.857Z,17.80
2022-08-28T09:32:44.899Z,12.20
2022-08-28T09:35:34.728Z,10.60
2022-08-28T09:38:30.335Z,12.10
2022-08-28T09:41:36.674Z,13.30
2022-08-28T09:44:27.215Z,13.30
2022-08-28T09:47:46.329Z,13.70
2022-08-28T09:50:44.551Z,15.70
2022-08-28T09:53:38.939Z,15.30
2022-08-28T09:56:35.299Z,14.60
2022-08-28T09:59:26.764Z,12.80
2022-08-28T10:02:23.185Z,13.00
2022-08-28T10:05:16.845Z,10.20
2022-08-28T10:08:24.757Z,10.90
2022-08-28T10:11:33.537Z,9.10
2022-08-28T10:15:02.666Z,8.80
2022-08-28T10:21:43.257Z,8.30
2022-08-28T10:25:02.468Z,8.50
2022-08-28T10:27:58.431Z,9.50
2022-08-28T10:31:01.649Z,9.70
2022-08-28T10:34:05.897Z,10.60
2022-08-28T10:37:17.931Z,10.60
2022-08-28T10:40:26.130Z,12.30
2022-08-28T10:43:23.279Z,11.60
2022-08-28T10:46:16.096Z,10.30
2022-08-28T10:49:11.366Z,9.20
2022-08-28T10:52:13.526Z,9.10
2022-08-28T10:55:13.726Z,12.00
2022-08-28T10:58:25.144Z,9.20
2022-08-28T11:01:19.670Z,8.80
2022-08-28T11:04:25.118Z,7.60
2022-08-28T11:07:24.197Z,6.50
2022-08-28T11:10:22.137Z,7.10
2022-08-28T11:13:38.170Z,7.70
2022-08-28T11:16:40.246Z,6.40
2022-08-28T11:19:52.396Z,6.30
2022-08-28T11:22:55.315Z,7.80
2022-08-28T11:25:54.983Z,9.60
2022-08-28T11:28:47.505Z,9.60
2022-08-28T11:31:38.692Z,10.10
2022-08-28T11:35:12.543Z,9.60
2022-08-28T11:38:00.513Z,10.50
2022-08-28T11:40:50.266Z,10.00
2022-08-28T11:43:42.224Z,8.00
2022-08-28T11:46:34.590Z,11.60
2022-08-28T11:49:28.239Z,9.00
2022-08-28T11:52:30.444Z,9.70
2022-08-28T11:56:02.370Z,7.20
2022-08-28T11:59:16.111Z,8.30
2022-08-28T12:02:44.305Z,6.70
2022-08-28T12:05:31.578Z,7.60
2022-08-28T12:08:52.832Z,7.00
2022-08-28T12:11:40.084Z,7.70
2022-08-28T12:14:30.214Z,8.20
2022-08-28T12:17:31.442Z,9.70
2022-08-28T12:20:47.042Z,7.20
2022-08-28T12:23:41.513Z,11.80
2022-08-28T12:26:39.985Z,8.50
2022-08-28T12:29:57.795Z,12.90
2022-08-28T12:32:56.482Z,8.50
2022-08-28T12:35:44.165Z,10.60
2022-08-28T12:38:36.446Z,9.00
2022-08-28T12:41:39.326Z,8.10
2022-08-28T12:44:30.316Z,10.30
2022-08-28T12:47:20.744Z,10.50
2022-08-28T12:50:22.361Z,10.40
2022-08-28T12:53:19.641Z,9.30
2022-08-28T12:56:09.854Z,8.00
2022-08-28T12:59:16.813Z,10.80
2022-08-28T13:02:11.819Z,11.80
2022-08-28T13:05:06.458Z,7.70
2022-08-28T13:07:57.158Z,9.30
2022-08-28T13:10:50.058Z,8.50
2022-08-28T13:13:40.463Z,10.00
2022-08-28T13:16:46.666Z,9.30
2022-08-28T13:19:40.994Z,9.30
2022-08-28T13:22:34.697Z,12.80
2022-08-28T13:25:27.803Z,9.40
2022-08-28T13:28:19.003Z,8.60
2022-08-28T13:31:06.861Z,11.10
2022-08-28T13:34:05.378Z,8.20
2022-08-28T13:36:58.212Z,9.30
2022-08-28T13:39:45.503Z,8.70
2022-08-28T13:42:33.485Z,9.80
2022-08-28T13:45:20.751Z,7.40
2022-08-28T13:48:09.365Z,6.20
2022-08-28T13:51:10.697Z,6.60
2022-08-28T13:53:58.917Z,6.40
2022-08-28T13:56:48.290Z,14.10
2022-08-28T14:00:07.156Z,4.90
2022-08-28T14:03:21.714Z,5.90
2022-08-28T14:06:17.114Z,9.00
2022-08-28T14:09:03.836Z,5.20
2022-08-28T14:11:51.537Z,4.10
2022-08-28T14:14:41.748Z,7.20
2022-08-28T14:17:29.247Z,5.60
2022-08-28T14:20:16.599Z,6.00
2022-08-28T14:23:03.982Z,7.10
2022-08-28T14:25:51.342Z,5.40
2022-08-28T14:28:38.500Z,6.60
2022-08-28T14:31:26.672Z,5.30
2022-08-28T14:34:17.952Z,7.20
2022-08-28T14:39:56.739Z,4.70
2022-08-28T14:42:43.860Z,12.00
2022-08-28T14:45:31.095Z,8.90
2022-08-28T14:48:19.090Z,6.40
2022-08-28T14:51:06.980Z,10.00
2022-08-28T14:53:54.149Z,9.10
2022-08-28T14:56:49.393Z,6.80
2022-08-28T14:59:38.693Z,10.90
2022-08-28T15:02:25.682Z,4.40
2022-08-28T15:05:12.739Z,4.10
2022-08-28T15:07:59.649Z,3.40
2022-08-28T15:10:48.708Z,4.20
2022-08-28T15:13:38.091Z,5.20
2022-08-28T15:16:30.316Z,2.10
2022-08-28T15:19:18.201Z,4.20
2022-08-28T15:22:14.599Z,3.50
2022-08-28T15:25:30.125Z,4.90
2022-08-28T15:28:22.471Z,2.20
2022-08-28T15:31:15.863Z,23.70
2022-08-28T15:34:07.217Z,2.10
2022-08-28T15:37:00.922Z,2.10
2022-08-28T15:40:09.228Z,2.50
2022-08-28T15:42:56.297Z,3.20
2022-08-28T15:45:43.134Z,2.70
2022-08-28T15:48:32.237Z,3.50
2022-08-28T15:51:25.170Z,2.30
2022-08-28T15:54:13.069Z,8.00
2022-08-28T15:56:59.953Z,2.50
2022-08-28T15:59:49.741Z,2.10
2022-08-28T16:02:37.397Z,2.80
2022-08-28T16:05:29.288Z,2.20
2022-08-28T16:08:18.315Z,3.70
2022-08-28T16:11:12.132Z,2.90
2022-08-28T16:13:59.291Z,3.30
2022-08-28T16:16:50.972Z,3.20
2022-08-28T16:19:43.601Z,3.40
2022-08-28T16:22:33.103Z,4.50
2022-08-28T16:25:24.666Z,4.10
2022-08-28T16:28:12.317Z,7.00
2022-08-28T16:31:03.989Z,3.20
2022-08-28T16:33:54.924Z,3.80
2022-08-28T16:36:41.617Z,3.80
2022-08-28T16:39:29.042Z,4.50
2022-08-28T16:42:17.317Z,9.20
2022-08-28T16:45:06.224Z,3.60
2022-08-28T16:47:52.919Z,3.70
2022-08-28T16:50:42.445Z,4.90
2022-08-28T16:53:29.218Z,3.90
2022-08-28T16:56:18.127Z,4.40
2022-08-28T16:59:10.172Z,4.40
2022-08-28T17:01:57.589Z,4.90
2022-08-28T17:04:44.981Z,3.70
2022-08-28T17:07:31.959Z,6.00
2022-08-28T17:10:21.826Z,4.30
2022-08-28T17:13:09.209Z,4.80
2022-08-28T17:15:56.206Z,6.60
2022-08-28T17:18:47.969Z,5.10
2022-08-28T17:21:57.741Z,5.50
2022-08-28T17:24:44.521Z,6.20
2022-08-28T17:27:33.912Z,5.30
2022-08-28T17:30:21.457Z,5.20
2022-08-28T17:33:08.592Z,5.40
2022-08-28T17:35:58.485Z,6.50
2022-08-28T17:38:46.602Z,5.90
2022-08-28T17:41:34.214Z,4.80
2022-08-28T17:44:21.032Z,5.60
2022-08-28T17:47:08.939Z,5.30
2022-08-28T17:49:55.529Z,4.70
2022-08-28T17:52:42.398Z,5.50
2022-08-28T17:55:29.379Z,6.60
2022-08-28T17:58:16.192Z,6.30
2022-08-28T18:01:03.657Z,6.90
2022-08-28T18:03:53.259Z,6.50
2022-08-28T18:06:40.665Z,8.50
2022-08-28T18:09:28.422Z,7.30
2022-08-28T18:12:15.427Z,7.60
2022-08-28T18:15:04.161Z,8.90
2022-08-28T18:17:55.098Z,7.20
2022-08-28T18:20:45.907Z,5.90
2022-08-28T18:23:32.940Z,6.40
2022-08-28T18:26:20.401Z,6.30
2022-08-28T18:29:07.776Z,6.00
2022-08-28T18:31:55.271Z,6.50
2022-08-28T18:34:42.371Z,7.30
2022-08-28T18:37:30.008Z,7.40
2022-08-28T18:40:17.586Z,8.20
2022-08-28T18:43:05.274Z,6.70
2022-08-28T18:45:53.152Z,7.30
2022-08-28T18:48:42.129Z,7.90
2022-08-28T18:51:32.738Z,7.60
2022-08-28T18:54:20.994Z,6.10
2022-08-28T18:57:10.131Z,6.50
2022-08-28T18:59:59.565Z,6.20
2022-08-28T19:02:46.946Z,8.10
2022-08-28T19:05:36.947Z,7.30
2022-08-28T19:08:25.843Z,7.10
2022-08-28T19:11:14.563Z,6.10
2022-08-28T19:14:03.845Z,7.80
2022-08-28T19:16:51.668Z,10.50
2022-08-28T19:19:38.998Z,14.90
2022-08-28T19:22:26.722Z,9.10
2022-08-28T19:25:27.877Z,9.10
2022-08-28T19:28:16.537Z,11.40
2022-08-28T19:31:04.652Z,10.40
2022-08-28T19:33:51.749Z,10.20
2022-08-28T19:36:39.790Z,9.60
2022-08-28T19:39:28.655Z,8.90
2022-08-28T19:42:15.921Z,9.50
2022-08-28T19:45:07.669Z,9.20
2022-08-28T19:47:54.951Z,9.70
2022-08-28T19:50:43.002Z,8.50
2022-08-28T19:53:31.533Z,8.80
2022-08-28T19:56:25.063Z,9.60
2022-08-28T19:59:12.496Z,8.40
2022-08-28T20:02:00.355Z,10.00
2022-08-28T20:04:50.116Z,9.70
2022-08-28T20:07:37.265Z,9.40
2022-08-28T20:10:24.248Z,8.60
2022-08-28T20:13:11.941Z,9.50
2022-08-28T20:16:04.842Z,7.10
2022-08-28T20:18:52.535Z,8.10
2022-08-28T20:21:41.256Z,8.30
2022-08-28T20:24:29.233Z,8.60
2022-08-28T20:27:16.162Z,10.00
2022-08-28T20:30:10.570Z,9.40
2022-08-28T20:32:59.978Z,8.10
2022-08-28T20:35:47.370Z,7.60
2022-08-28T20:38:38.369Z,7.30
2022-08-28T20:41:25.350Z,6.20
2022-08-28T20:44:15.489Z,8.20
2022-08-28T20:47:02.524Z,6.30
2022-08-28T20:49:50.771Z,6.30
2022-08-28T20:52:38.094Z,5.80
2022-08-28T20:55:25.017Z,5.70
2022-08-28T20:58:14.181Z,5.90
2022-08-28T21:01:01.949Z,6.90
2022-08-28T21:03:49.035Z,6.10
2022-08-28T21:06:36.019Z,8.30
2022-08-28T21:09:23.770Z,7.20
2022-08-28T21:12:30.722Z,6.30
2022-08-28T21:15:17.664Z,6.90
2022-08-28T21:18:05.265Z,6.80
2022-08-28T21:20:52.840Z,6.50
2022-08-28T21:23:42.122Z,5.90
2022-08-28T21:26:29.553Z,7.10
2022-08-28T21:29:20.811Z,6.80
2022-08-28T21:32:09.516Z,7.80
2022-08-28T21:34:56.399Z,7.40
2022-08-28T21:37:43.468Z,7.10
2022-08-28T21:40:30.259Z,7.80
2022-08-28T21:43:17.310Z,8.20
2022-08-28T21:46:05.697Z,8.90
2022-08-28T21:48:55.174Z,7.80
2022-08-28T21:51:42.526Z,7.50
2022-08-28T21:54:29.588Z,7.20
2022-08-28T21:57:17.775Z,7.20
2022-08-28T22:00:12.045Z,6.60
2022-08-28T22:02:59.237Z,6.50
2022-08-28T22:05:48.432Z,7.40
2022-08-28T22:08:37.117Z,8.60
2022-08-28T22:11:26.975Z,7.50
2022-08-28T22:14:14.087Z,8.00
2022-08-28T22:17:01.770Z,7.90
2022-08-28T22:19:48.929Z,7.50
2022-08-28T22:22:54.548Z,8.70
2022-08-28T22:25:42.606Z,6.90
2022-08-28T22:28:30.041Z,10.00
2022-08-28T22:31:17.330Z,7.30
2022-08-28T22:34:06.043Z,7.30
2022-08-28T22:36:53.257Z,7.70
2022-08-28T22:39:41.944Z,6.90
2022-08-28T22:42:29.211Z,7.00
2022-08-28T22:45:21.948Z,7.70
2022-08-28T22:48:11.253Z,8.30
2022-08-28T22:51:05.227Z,7.80
2022-08-28T22:53:52.763Z,7.40
2022-08-28T22:56:39.598Z,7.90
2022-08-28T22:59:32.222Z,6.60
2022-08-28T23:02:27.316Z,8.60
2022-08-28T23:05:15.401Z,6.90
2022-08-28T23:08:02.751Z,6.90
2022-08-28T23:10:59.053Z,7.00
2022-08-28T23:13:46.572Z,6.70
2022-08-28T23:16:35.372Z,8.60
2022-08-28T23:19:22.384Z,7.70
2022-08-28T23:22:09.442Z,8.30
2022-08-28T23:24:57.139Z,6.90
2022-08-28T23:27:45.091Z,7.10
2022-08-28T23:30:32.175Z,6.00
2022-08-28T23:33:23.715Z,6.40
2022-08-28T23:36:11.569Z,6.40
2022-08-28T23:38:58.472Z,6.30
2022-08-28T23:41:46.853Z,6.30
2022-08-28T23:44:33.867Z,6.90
2022-08-28T23:47:20.928Z,6.00
2022-08-28T23:50:11.221Z,6.00
2022-08-28T23:52:58.763Z,7.80
2022-08-28T23:55:46.307Z,7.70
2022-08-28T23:58:36.307Z,9.10
